Time;durP1;ratioP1;P1;durP2;ratioP2;P2;SDS_P1;SDS_P2;PMS_P1;PMS_P2;Temp;Humidity;BMP_temperature;BMP_pressure;BME280_temperature;BME280_humidity;BME280_pressure;Samples;Min_cycle;Max_cycle;Signal;HPM_P1;HPM_P2
2021/08/20 00:00:00;;;;;;;4.50;1.27;;;;;;;19.40;67.78;100634.16;2605982;54;20050;31
2021/08/20 00:02:30;;;;;;;2.70;1.10;;;;;;;19.44;68.10;100646.25;2604231;54;20034;31
2021/08/20 00:05:01;;;;;;;3.15;1.15;;;;;;;19.36;67.89;100627.34;2605117;54;20077;31
2021/08/20 00:07:32;;;;;;;2.30;0.95;;;;;;;19.18;68.51;100601.97;2604095;47;21025;31
2021/08/20 00:10:02;;;;;;;3.05;1.20;;;;;;;19.25;69.20;100610.41;2616796;54;20051;31
2021/08/20 00:12:30;;;;;;;2.00;0.90;;;;;;;19.23;69.21;100610.50;2604036;54;20905;31
2021/08/20 00:15:02;;;;;;;3.28;1.25;;;;;;;19.22;68.73;100608.81;2605732;47;20046;31
2021/08/20 00:17:32;;;;;;;1.70;0.70;;;;;;;19.30;68.81;100626.84;2611554;47;20023;31
2021/08/20 00:20:03;;;;;;;2.38;1.10;;;;;;;19.30;68.87;100630.34;2604586;47;20022;31
2021/08/20 00:22:31;;;;;;;1.38;0.60;;;;;;;19.26;68.99;100636.81;2609917;54;20031;31
2021/08/20 00:24:59;;;;;;;1.42;0.57;;;;;;;19.16;69.42;100625.91;2612183;47;20022;31
2021/08/20 00:27:29;;;;;;;1.42;0.60;;;;;;;19.27;68.97;100646.44;2606762;54;20087;31
2021/08/20 00:29:59;;;;;;;1.83;0.80;;;;;;;19.26;68.95;100651.81;2606408;54;20019;31
2021/08/20 00:32:29;;;;;;;1.95;0.70;;;;;;;19.16;69.38;100646.22;2611827;54;20029;31
2021/08/20 00:34:57;;;;;;;2.03;0.90;;;;;;;19.21;70.17;100649.47;2611407;47;20029;31
2021/08/20 00:39:57;;;;;;;3.05;1.20;;;;;;;19.21;69.86;100649.47;2607287;54;20026;31
2021/08/20 00:42:25;;;;;;;1.38;0.50;;;;;;;19.07;70.19;100634.38;2605191;54;20773;31
2021/08/20 00:44:54;;;;;;;2.83;0.98;;;;;;;18.97;69.59;100619.16;2605423;54;20893;31
2021/08/20 00:47:24;;;;;;;2.45;0.98;;;;;;;19.08;69.18;100635.22;2603695;54;20799;31
2021/08/20 00:49:52;;;;;;;1.65;0.70;;;;;;;18.93;70.02;100621.09;2604062;47;20059;31
2021/08/20 00:52:23;;;;;;;2.20;0.90;;;;;;;18.96;69.90;100633.28;2608715;54;20034;31
2021/08/20 00:54:51;;;;;;;1.97;0.80;;;;;;;18.95;70.33;100631.59;2608015;46;20030;31
2021/08/20 00:57:21;;;;;;;2.67;1.08;;;;;;;18.75;69.83;100609.78;2607677;54;21089;31
2021/08/20 00:59:49;;;;;;;1.40;0.70;;;;;;;18.82;69.89;100620.88;2604756;54;20874;31
2021/08/20 01:02:17;;;;;;;1.23;0.63;;;;;;;18.61;70.04;100593.84;2604210;54;20038;31
2021/08/20 01:04:48;;;;;;;1.50;0.60;;;;;;;18.84;69.76;100626.94;2604195;46;21123;31
2021/08/20 01:07:23;;;;;;;1.10;0.57;;;;;;;18.78;69.42;100624.66;2604192;54;20030;31
2021/08/20 01:09:53;;;;;;;1.73;0.63;;;;;;;18.67;69.93;100598.78;2605125;46;20033;31
2021/08/20 01:12:24;;;;;;;2.17;0.70;;;;;;;18.71;70.12;100610.94;2608833;46;20014;31
2021/08/20 01:14:54;;;;;;;1.60;0.70;;;;;;;18.80;70.43;100617.47;2605337;47;21480;31
2021/08/20 01:17:24;;;;;;;1.15;0.60;;;;;;;18.59;70.11;100577.22;2606907;54;20168;31
2021/08/20 01:19:54;;;;;;;0.98;0.45;;;;;;;18.72;70.89;100594.13;2610173;47;20030;31
2021/08/20 01:22:25;;;;;;;0.98;0.40;;;;;;;18.79;70.20;100613.97;2604839;47;20056;31
2021/08/20 01:25:01;;;;;;;1.90;0.80;;;;;;;18.76;70.43;100600.94;2606253;46;20056;31
2021/08/20 01:27:35;;;;;;;1.88;0.55;;;;;;;18.59;70.26;100571.91;2608249;46;20026;31
2021/08/20 01:30:07;;;;;;;1.00;0.40;;;;;;;18.71;70.94;100605.66;2607936;39;22164;31
2021/08/20 01:32:41;;;;;;;2.10;1.00;;;;;;;18.67;70.68;100588.22;2613740;46;20955;31
2021/08/20 01:35:09;;;;;;;1.45;0.70;;;;;;;18.74;70.97;100605.44;2624345;36;20014;-77
2021/08/20 01:37:37;;;;;;;1.80;0.70;;;;;;;18.77;71.26;100613.22;2633683;36;20023;31
2021/08/20 01:40:07;;;;;;;1.98;0.93;;;;;;;18.75;71.09;100608.94;2614150;46;20035;31
2021/08/20 01:42:35;;;;;;;2.03;0.80;;;;;;;18.73;70.85;100595.81;2605459;47;20089;31
2021/08/20 01:45:04;;;;;;;0.90;0.40;;;;;;;18.73;71.17;100592.31;2627186;36;20889;31
2021/08/20 01:47:32;;;;;;;1.63;0.80;;;;;;;18.81;71.41;100605.97;2625870;36;22025;31
2021/08/20 01:50:00;;;;;;;1.85;0.60;;;;;;;18.68;71.00;100584.66;2625689;36;20086;31
2021/08/20 01:52:30;;;;;;;1.20;0.50;;;;;;;18.63;70.85;100578.75;2626359;36;21690;31
2021/08/20 01:55:00;;;;;;;1.80;0.73;;;;;;;18.54;71.56;100558.09;2631842;36;20082;31
2021/08/20 01:57:28;;;;;;;1.13;0.47;;;;;;;18.48;71.44;100548.75;2604311;54;20027;31
2021/08/20 01:59:58;;;;;;;3.22;0.95;;;;;;;18.63;71.22;100568.16;2604170;47;20019;31
2021/08/20 02:02:27;;;;;;;1.40;0.67;;;;;;;18.63;70.95;100573.44;2624813;36;20023;31
2021/08/20 02:04:55;;;;;;;1.83;0.65;;;;;;;18.50;71.13;100556.56;2604312;46;20276;31
2021/08/20 02:09:53;;;;;;;1.65;0.52;;;;;;;18.69;70.81;100594.28;2622895;36;19941;31
2021/08/20 02:12:23;;;;;;;1.88;0.80;;;;;;;18.56;70.48;100566.81;2622774;36;20019;31
2021/08/20 02:15:08;;;;;;;1.40;0.70;;;;;;;18.63;70.05;100574.31;2625425;36;20897;31
2021/08/20 02:17:39;;;;;;;2.20;0.98;;;;;;;18.74;70.33;100591.38;2604807;47;20026;31
2021/08/20 02:20:12;;;;;;;2.40;0.90;;;;;;;18.75;69.81;100588.63;2629563;36;20026;31
2021/08/20 02:22:42;;;;;;;1.73;0.67;;;;;;;18.71;69.96;100587.13;2623411;36;20057;31
2021/08/20 02:25:13;;;;;;;2.40;0.70;;;;;;;18.69;70.14;100577.56;2623164;36;20023;31
2021/08/20 02:27:42;;;;;;;1.85;0.80;;;;;;;18.64;70.16;100573.34;2628143;36;20034;31
2021/08/20 02:30:10;;;;;;;;;;;;;;;18.75;69.07;100593.91;2605063;47;20034;31
2021/08/20 02:35:24;;;;;;;2.37;0.87;;;;;;;18.72;69.65;100583.53;2628884;36;20294;31
2021/08/20 02:37:56;;;;;;;1.03;0.37;;;;;;;18.67;69.52;100570.53;2604277;46;20700;31
2021/08/20 02:40:24;;;;;;;1.80;0.80;;;;;;;18.46;69.44;100539.22;2623313;36;20633;31
2021/08/20 02:42:53;;;;;;;1.95;0.75;;;;;;;18.57;69.46;100558.78;2627097;36;20829;31
2021/08/20 02:45:21;;;;;;;2.80;0.98;;;;;;;18.41;69.58;100537.69;2606039;47;20051;31
2021/08/20 02:47:57;;;;;;;1.52;0.43;;;;;;;18.42;69.91;100536.72;2623772;36;20029;31
2021/08/20 02:50:27;;;;;;;2.83;1.23;;;;;;;18.47;69.61;100543.56;2627380;36;20026;31
2021/08/20 02:55:33;;;;;;;1.87;0.70;;;;;;;18.54;69.34;100558.09;2610857;51;20057;31
2021/08/20 02:58:04;;;;;;;2.85;1.20;;;;;;;18.44;69.73;100546.38;2623529;36;20075;31
2021/08/20 03:00:36;;;;;;;2.60;1.20;;;;;;;18.39;69.72;100539.53;2723630;36;22074;31
2021/08/20 03:03:04;;;;;;;2.50;1.05;;;;;;;18.45;69.68;100548.06;2624439;36;20101;31
2021/08/20 03:05:35;;;;;;;3.40;1.30;;;;;;;18.36;69.27;100534.44;2603955;47;20937;31
2021/08/20 03:08:06;;;;;;;3.13;1.05;;;;;;;18.37;69.31;100545.88;2622236;36;20841;31
2021/08/20 03:10:37;;;;;;;2.95;1.00;;;;;;;18.41;69.55;100550.91;2622906;36;22163;31
2021/08/20 03:13:04;;;;;;;3.63;1.42;;;;;;;18.41;69.71;100550.06;2625223;36;20905;31
2021/08/20 03:15:34;;;;;;;3.08;1.08;;;;;;;18.48;69.56;100555.81;2622879;36;20034;31
2021/08/20 03:18:03;;;;;;;1.80;0.65;;;;;;;18.45;69.78;100553.34;2623079;36;20026;31
2021/08/20 03:20:31;;;;;;;1.90;0.73;;;;;;;18.38;69.58;100545.78;2622994;36;20022;31
2021/08/20 03:23:10;;;;;;;2.97;0.70;;;;;;;18.37;69.40;100530.84;2622951;36;20030;31
2021/08/20 03:25:40;;;;;;;2.45;1.10;;;;;;;18.36;69.23;100534.44;2603678;47;20026;31
2021/08/20 03:28:11;;;;;;;2.63;0.90;;;;;;;18.38;69.18;100540.50;2623542;36;20075;31
2021/08/20 03:30:45;;;;;;;2.13;0.70;;;;;;;18.14;69.75;100496.97;2624773;36;20033;31
2021/08/20 03:33:13;;;;;;;2.33;1.00;;;;;;;18.36;69.44;100542.38;2603973;54;20034;31
2021/08/20 03:35:50;;;;;;;2.30;0.75;;;;;;;18.36;69.54;100538.88;2623235;36;20943;31
2021/08/20 03:38:23;;;;;;;2.05;0.90;;;;;;;18.16;69.46;100505.66;2630547;36;20018;31
2021/08/20 03:40:53;;;;;;;3.70;1.05;;;;;;;18.21;69.01;100518.63;2623649;36;20110;31
2021/08/20 03:43:24;;;;;;;2.40;0.70;;;;;;;18.11;69.49;100502.44;2608490;46;21220;31
2021/08/20 03:46:09;;;;;;;5.40;1.42;;;;;;;18.21;69.59;100524.75;2625755;36;20149;31
2021/08/20 03:48:42;;;;;;;4.00;1.50;;;;;;;18.14;69.46;100512.81;2630475;36;20030;31
2021/08/20 03:51:12;;;;;;;1.90;0.73;;;;;;;18.05;69.81;100493.06;2609605;47;20084;31
2021/08/20 03:53:42;;;;;;;2.15;0.90;;;;;;;18.22;69.52;100531.75;2625601;36;20086;31
2021/08/20 03:56:10;;;;;;;2.05;0.80;;;;;;;18.21;69.67;100518.63;2625847;36;20034;31
2021/08/20 03:58:44;;;;;;;2.63;0.85;;;;;;;18.09;69.81;100499.00;2627482;36;20034;31
2021/08/20 04:01:21;;;;;;;3.05;1.40;;;;;;;18.21;70.12;100518.63;2623119;36;20873;31
2021/08/20 04:03:53;;;;;;;3.30;1.15;;;;;;;18.24;70.20;100524.56;2622876;36;20030;31
2021/08/20 04:06:33;;;;;;;2.38;1.02;;;;;;;18.12;70.20;100512.06;2623679;36;20042;31
2021/08/20 04:09:03;;;;;;;1.80;0.70;;;;;;;18.04;70.11;100503.72;2622759;36;20811;31
2021/08/20 04:11:37;;;;;;;4.07;0.95;;;;;;;18.14;70.34;100518.09;2627070;36;20093;31
2021/08/20 04:14:23;;;;;;;2.15;1.00;;;;;;;18.18;70.38;100519.63;2623978;36;20752;31
2021/08/20 04:16:54;;;;;;;1.95;0.80;;;;;;;18.24;69.90;100532.50;2625637;36;20105;31
2021/08/20 04:19:25;;;;;;;2.20;0.82;;;;;;;18.18;69.83;100522.28;2623585;36;21001;31
2021/08/20 04:21:56;;;;;;;1.27;0.57;;;;;;;18.16;69.73;100518.88;2623480;36;20046;31
2021/08/20 04:24:25;;;;;;;1.63;0.60;;;;;;;18.06;70.23;100505.34;2623868;36;20314;31
2021/08/20 04:26:57;;;;;;;1.75;1.00;;;;;;;18.08;70.20;100503.44;2625251;36;20828;31
2021/08/20 04:29:40;;;;;;;2.53;1.00;;;;;;;18.00;70.23;100486.34;2623808;36;20027;31
2021/08/20 04:32:29;;;;;;;2.00;0.80;;;;;;;18.26;70.03;100525.34;2623347;36;20866;31
2021/08/20 04:35:19;;;;;;;3.00;1.25;;;;;;;18.27;70.06;100528.84;2568461;54;2004362;31
2021/08/20 04:38:05;;;;;;;2.20;1.00;;;;;;;18.22;70.44;100518.53;2623840;36;20015;31
2021/08/20 04:41:08;;;;;;;1.80;0.83;;;;;;;18.24;70.19;100519.28;2570943;54;2004599;31
2021/08/20 04:43:43;;;;;;;2.47;0.93;;;;;;;18.18;70.27;100514.34;2632678;36;22235;31
2021/08/20 04:46:46;;;;;;;2.50;1.20;;;;;;;18.22;70.16;100521.16;2595943;36;2004604;31
2021/08/20 04:49:25;;;;;;;3.53;1.63;;;;;;;18.09;70.29;100505.16;2626934;36;20905;31
2021/08/20 04:52:19;;;;;;;2.95;0.82;;;;;;;18.28;70.17;100526.09;2571416;54;2004636;31
2021/08/20 04:55:19;;;;;;;1.80;0.60;;;;;;;18.26;70.20;100525.34;2591356;36;2004776;31
2021/08/20 04:57:49;;;;;;;2.67;1.40;;;;;;;18.26;70.35;100525.34;2606312;47;20346;31
2021/08/20 05:00:17;;;;;;;1.95;0.90;;;;;;;18.15;70.75;100509.25;2623607;36;20035;31
2021/08/20 05:02:45;;;;;;;3.00;0.85;;;;;;;18.27;70.38;100534.97;2604759;46;20026;31
2021/08/20 05:05:17;;;;;;;2.85;0.95;;;;;;;18.25;70.46;100536.88;2623976;36;20046;31
2021/08/20 05:07:47;;;;;;;1.08;0.50;;;;;;;18.29;70.59;100534.88;2636433;36;20030;31
2021/08/20 05:10:15;;;;;;;3.05;1.00;;;;;;;18.22;70.71;100534.38;2629490;36;20023;31
2021/08/20 05:12:43;;;;;;;1.67;0.80;;;;;;;18.14;70.87;100520.75;2611483;46;21327;31
2021/08/20 05:15:13;;;;;;;2.17;0.60;;;;;;;18.18;70.46;100516.16;2626123;36;20018;31
2021/08/20 05:17:43;;;;;;;2.00;0.70;;;;;;;18.10;70.69;100508.66;2627413;36;20031;31
2021/08/20 05:20:13;;;;;;;1.45;0.50;;;;;;;18.10;70.52;100513.97;2631816;36;20067;31
2021/08/20 05:22:51;;;;;;;1.77;0.70;;;;;;;18.22;70.08;100529.09;2604386;54;20034;31
2021/08/20 05:25:20;;;;;;;2.50;0.82;;;;;;;18.17;70.74;100523.22;2625319;36;19930;31
2021/08/20 05:27:49;;;;;;;1.48;0.55;;;;;;;18.30;71.08;100549.81;2606947;47;21649;31
2021/08/20 05:30:17;;;;;;;1.75;0.68;;;;;;;18.24;71.05;100540.44;2627112;36;20891;31
2021/08/20 05:32:46;;;;;;;2.10;0.75;;;;;;;18.11;70.92;100519.16;2607752;46;20078;31
2021/08/20 05:35:14;;;;;;;2.15;0.70;;;;;;;18.26;70.95;100546.50;2604170;47;20082;31
2021/08/20 05:37:44;;;;;;;1.98;0.70;;;;;;;18.33;71.07;100554.91;2604980;46;20882;31
2021/08/20 05:40:14;;;;;;;1.30;0.60;;;;;;;18.32;71.11;100548.78;2623492;36;19946;31
2021/08/20 05:42:45;;;;;;;3.20;1.00;;;;;;;18.17;70.80;100517.09;2623066;36;20023;31
2021/08/20 05:45:14;;;;;;;3.30;1.40;;;;;;;18.30;71.03;100541.91;2625031;36;20930;31
2021/08/20 05:47:42;;;;;;;1.75;0.82;;;;;;;18.14;71.34;100507.53;2603412;54;20042;31
2021/08/20 05:50:12;;;;;;;2.05;0.68;;;;;;;18.37;71.09;100549.38;2623264;36;22027;31
2021/08/20 05:52:42;;;;;;;2.58;0.90;;;;;;;18.37;71.28;100549.38;2605063;46;19931;31
2021/08/20 05:55:12;;;;;;;2.50;1.25;;;;;;;18.40;71.30;100548.34;2631071;36;20026;31
2021/08/20 05:57:43;;;;;;;1.70;0.67;;;;;;;18.28;71.38;100531.38;2610749;54;20030;31
2021/08/20 06:00:11;;;;;;;1.60;0.70;;;;;;;18.41;71.03;100548.25;2604683;54;20863;31
2021/08/20 06:02:42;;;;;;;2.03;1.10;;;;;;;18.34;70.99;100533.66;2627595;39;22099;31
2021/08/20 06:05:16;;;;;;;3.03;1.00;;;;;;;18.38;71.22;100543.13;2624469;36;20070;31
2021/08/20 06:07:44;;;;;;;2.78;1.17;;;;;;;18.29;71.16;100525.16;2624085;36;20044;31
2021/08/20 06:10:14;;;;;;;2.15;0.70;;;;;;;18.29;70.84;100511.94;2617406;47;20026;31
2021/08/20 06:12:45;;;;;;;2.75;0.82;;;;;;;18.47;70.82;100540.91;2604905;54;20050;31
2021/08/20 06:15:14;;;;;;;1.30;0.60;;;;;;;18.53;71.05;100551.13;2624290;36;20921;31
2021/08/20 06:17:46;;;;;;;0.60;0.40;;;;;;;18.48;71.11;100542.59;2621992;47;20036;31
2021/08/20 06:20:16;;;;;;;0.88;0.40;;;;;;;18.50;70.64;100536.31;2611826;54;20124;31
2021/08/20 06:22:46;;;;;;;1.88;0.50;;;;;;;18.41;70.80;100527.09;2607504;46;20742;31
2021/08/20 06:25:17;;;;;;;2.58;1.20;;;;;;;18.48;70.62;100526.75;2620223;47;20022;31
2021/08/20 06:27:45;;;;;;;2.10;0.82;;;;;;;18.57;71.01;100531.50;2630396;36;21038;31
2021/08/20 06:30:15;;;;;;;0.70;0.50;;;;;;;18.61;70.65;100535.69;2609431;47;21614;31
2021/08/20 06:32:43;;;;;;;1.88;0.75;;;;;;;18.61;71.08;100538.31;2615671;47;20034;31
2021/08/20 06:35:13;;;;;;;1.48;0.57;;;;;;;18.66;70.80;100526.53;2623998;39;21976;31
2021/08/20 06:37:43;;;;;;;2.35;0.90;;;;;;;18.72;71.07;100541.22;2610148;46;20047;31
2021/08/20 06:40:11;;;;;;;1.10;0.60;;;;;;;18.67;70.83;100528.22;2630851;36;20127;31
2021/08/20 06:42:42;;;;;;;1.70;0.80;;;;;;;18.73;70.55;100529.69;2630341;36;20259;31
2021/08/20 06:47:57;;;;;;;1.90;0.80;;;;;;;18.84;71.08;100543.13;2608790;54;20376;31
2021/08/20 06:50:27;;;;;;;1.58;0.57;;;;;;;18.86;70.78;100541.25;2630187;36;20786;31
2021/08/20 06:53:00;;;;;;;1.25;0.50;;;;;;;18.89;70.64;100533.09;2631029;36;20111;31
2021/08/20 06:55:31;;;;;;;2.42;0.90;;;;;;;18.90;70.66;100539.25;2634675;36;20695;31
2021/08/20 06:58:01;;;;;;;1.17;0.50;;;;;;;18.77;70.78;100511.84;2617380;38;20794;31
2021/08/20 07:00:31;;;;;;;1.30;0.70;;;;;;;18.84;70.72;100521.09;2608592;46;20026;31
2021/08/20 07:03:00;;;;;;;1.55;0.80;;;;;;;18.93;70.45;100534.63;2627564;36;19927;31
2021/08/20 07:05:31;;;;;;;1.10;0.50;;;;;;;18.93;70.93;100534.63;2628252;36;20026;31
2021/08/20 07:08:01;;;;;;;2.30;0.95;;;;;;;18.90;70.76;100510.16;2609442;46;20026;31
2021/08/20 07:10:30;;;;;;;2.15;0.80;;;;;;;18.89;70.88;100517.22;2632169;36;20034;31
2021/08/20 07:13:00;;;;;;;2.80;0.90;;;;;;;19.09;70.79;100536.34;2643368;36;20094;31
2021/08/20 07:15:30;;;;;;;1.33;0.63;;;;;;;19.02;70.44;100519.16;2651538;36;20018;31
2021/08/20 07:18:00;;;;;;;3.15;1.20;;;;;;;19.14;70.49;100536.94;2611147;47;20030;31
2021/08/20 07:20:29;;;;;;;1.37;0.60;;;;;;;19.04;70.53;100514.59;2622396;46;20042;31
2021/08/20 07:22:56;;;;;;;1.67;0.82;;;;;;;19.17;70.75;100531.47;2653361;36;20274;-79
2021/08/20 07:25:26;;;;;;;2.50;0.80;;;;;;;19.22;70.78;100542.63;2626052;46;20884;31
2021/08/20 07:27:54;;;;;;;2.83;0.85;;;;;;;19.21;70.55;100535.63;2639295;36;20030;31
2021/08/20 07:30:24;;;;;;;2.20;0.77;;;;;;;19.25;70.31;100544.22;2640239;36;20034;31
2021/08/20 07:32:52;;;;;;;1.75;0.82;;;;;;;19.24;70.67;100538.06;2653048;36;20734;-78
2021/08/20 07:38:19;;;;;;;3.90;1.45;;;;;;;19.20;71.15;100547.13;2614510;54;20048;31
2021/08/20 07:40:49;;;;;;;4.78;1.88;;;;;;;19.25;70.87;100555.66;2635742;31;20030;31
2021/08/20 07:43:19;;;;;;;4.65;1.80;;;;;;;19.08;71.32;100524.06;2626084;47;20859;-77
2021/08/20 07:45:47;;;;;;;4.28;1.52;;;;;;;19.21;71.48;100550.63;2630637;36;20042;31
2021/08/20 07:48:17;;;;;;;3.88;1.45;;;;;;;19.26;71.33;100549.44;2626376;38;22212;31
2021/08/20 07:50:46;;;;;;;4.65;2.13;;;;;;;19.28;71.72;100555.47;2635303;54;20018;-79
2021/08/20 07:53:16;;;;;;;3.80;1.45;;;;;;;19.25;71.90;100544.22;2638509;36;20881;31
2021/08/20 07:55:49;;;;;;;3.95;1.20;;;;;;;19.08;71.65;100516.13;2633442;36;20970;31
2021/08/20 07:58:17;;;;;;;2.85;1.30;;;;;;;19.28;71.61;100544.88;2608004;46;20030;31
2021/08/20 08:00:48;;;;;;;3.70;1.40;;;;;;;19.35;71.76;100562.09;2605318;54;20042;31
2021/08/20 08:03:18;;;;;;;4.18;1.48;;;;;;;19.31;71.08;100542.06;2627111;36;19945;31
2021/08/20 08:05:47;;;;;;;4.30;1.40;;;;;;;19.30;71.57;100540.31;2638498;36;20048;31
2021/08/20 08:08:17;;;;;;;6.35;2.17;;;;;;;19.44;71.41;100556.22;2605339;54;19997;31
2021/08/20 08:10:45;;;;;;;3.53;1.73;;;;;;;19.28;71.49;100529.00;2636984;36;20041;31
2021/08/20 08:13:13;;;;;;;4.93;1.55;;;;;;;19.41;71.38;100544.97;2624690;36;20022;31
2021/08/20 08:15:43;;;;;;;4.70;1.88;;;;;;;19.54;71.76;100561.81;2627189;36;19951;31
2021/08/20 08:18:13;;;;;;;2.97;1.13;;;;;;;19.62;71.31;100564.03;2625336;36;20022;31
2021/08/20 08:20:43;;;;;;;3.45;1.10;;;;;;;19.53;71.34;100544.22;2626015;36;20019;31
2021/08/20 08:23:13;;;;;;;3.70;1.77;;;;;;;19.69;71.82;100546.78;2624520;36;20030;31
2021/08/20 08:25:44;;;;;;;4.00;1.80;;;;;;;19.76;71.13;100556.03;2648862;36;20010;-78
2021/08/20 08:31:02;;;;;;;6.22;2.33;;;;;;;19.91;71.52;100557.72;2632671;39;21033;-78
2021/08/20 08:33:30;;;;;;;4.97;1.95;;;;;;;19.84;71.41;100542.31;2648772;36;20014;-79
2021/08/20 08:36:00;;;;;;;3.92;1.90;;;;;;;20.03;71.33;100557.91;2676996;36;20030;-78
2021/08/20 08:38:27;;;;;;;6.00;2.50;;;;;;;20.06;71.70;100552.38;2630364;47;20837;-78
2021/08/20 08:40:54;;;;;;;5.82;1.67;;;;;;;20.07;71.63;100540.81;2630396;54;20034;-79
2021/08/20 08:43:22;;;;;;;4.35;1.50;;;;;;;20.19;71.86;100545.34;2644220;36;20022;31
2021/08/20 08:45:49;;;;;;;2.97;1.40;;;;;;;20.23;71.39;100538.91;2630381;47;21218;-78
2021/08/20 08:48:25;;;;;;;3.88;1.40;;;;;;;20.37;70.99;100535.31;2667160;36;20042;-78
2021/08/20 08:50:54;;;;;;;5.35;1.45;;;;;;;20.45;71.22;100539.16;2648902;36;20646;-78
2021/08/20 08:53:21;;;;;;;3.65;1.60;;;;;;;20.47;71.08;100544.38;2661699;36;20022;-78
2021/08/20 08:55:57;;;;;;;2.65;1.10;;;;;;;20.60;71.17;100547.09;2629968;46;20090;-78
2021/08/20 08:58:26;;;;;;;2.07;0.90;;;;;;;20.70;71.03;100549.03;2614993;47;20038;31
2021/08/20 09:00:58;;;;;;;2.38;1.08;;;;;;;20.83;71.19;100550.84;2633524;39;20541;-78
2021/08/20 09:03:29;;;;;;;2.65;1.10;;;;;;;20.91;71.11;100557.34;2648794;36;20019;-79
2021/08/20 09:06:01;;;;;;;3.28;1.10;;;;;;;20.91;70.77;100530.78;2632248;36;20061;31
2021/08/20 09:08:29;;;;;;;3.05;1.10;;;;;;;20.96;71.10;100538.44;2655037;36;20703;-79
2021/08/20 09:11:01;;;;;;;2.35;0.90;;;;;;;21.19;70.53;100560.75;2630041;54;20015;-78
2021/08/20 09:13:31;;;;;;;3.05;0.95;;;;;;;21.28;70.74;100557.44;2630305;54;20014;-79
2021/08/20 09:16:05;;;;;;;4.40;1.35;;;;;;;21.38;70.34;100555.88;2630534;54;20034;-79
2021/08/20 09:18:32;;;;;;;2.47;0.88;;;;;;;21.36;70.70;100546.34;2630459;47;20015;-79
2021/08/20 09:23:48;;;;;;;5.05;1.70;;;;;;;21.53;69.82;100561.06;2631045;54;20041;-79
2021/08/20 09:26:18;;;;;;;4.35;1.60;;;;;;;21.57;70.13;100565.22;2638411;36;20039;31
2021/08/20 09:28:46;;;;;;;2.20;0.85;;;;;;;21.57;70.16;100559.91;2648365;36;20019;-78
2021/08/20 09:31:13;;;;;;;1.42;0.55;;;;;;;21.59;69.95;100557.97;2648501;36;20025;-79
2021/08/20 09:33:43;;;;;;;2.08;0.82;;;;;;;21.69;69.90;100564.34;2648357;36;20102;-79
2021/08/20 09:36:15;;;;;;;4.15;1.40;;;;;;;21.55;69.76;100538.78;2636384;36;20101;-75
2021/08/20 09:38:50;;;;;;;5.10;1.10;;;;;;;21.67;69.80;100539.69;2695160;36;21393;-78
2021/08/20 09:41:28;;;;;;;1.80;0.90;;;;;;;21.77;69.46;100562.00;2662538;36;20497;-79
2021/08/20 09:44:02;;;;;;;2.10;0.88;;;;;;;21.82;69.68;100559.84;2634250;36;2004658;-78
2021/08/20 09:46:45;;;;;;;1.92;1.00;;;;;;;21.84;69.10;100563.25;2648439;36;20040;-79
2021/08/20 09:49:16;;;;;;;1.00;0.50;;;;;;;21.92;69.40;100571.53;2653635;36;20034;-79
2021/08/20 09:51:49;;;;;;;3.10;1.02;;;;;;;21.89;69.21;100558.44;2689472;36;20030;-78
2021/08/20 09:54:23;;;;;;;1.65;0.50;;;;;;;22.02;69.15;100567.25;2647577;36;20013;-79
2021/08/20 09:57:00;;;;;;;1.75;0.80;;;;;;;22.11;69.30;100564.91;2647468;36;21224;-79
2021/08/20 09:59:30;;;;;;;1.85;0.50;;;;;;;22.14;69.06;100556.69;2680324;36;20023;-79
2021/08/20 10:02:01;;;;;;;1.15;0.65;;;;;;;22.26;69.15;100563.78;2740864;36;20093;-79
2021/08/20 10:04:36;;;;;;;3.05;0.80;;;;;;;22.33;68.81;100562.38;2693837;36;20011;-79
2021/08/20 10:07:09;;;;;;;4.00;1.27;;;;;;;22.40;68.46;100554.78;2647684;36;20007;-79
2021/08/20 10:09:38;;;;;;;2.88;1.00;;;;;;;22.50;68.42;100567.25;2674669;36;20030;-78
2021/08/20 10:12:07;;;;;;;2.50;0.90;;;;;;;22.56;67.88;100566.00;2647126;36;20051;-79
2021/08/20 10:14:35;;;;;;;2.15;0.98;;;;;;;22.61;67.90;100561.16;2664046;36;2004770;-79
2021/08/20 10:17:04;;;;;;;1.63;0.80;;;;;;;22.61;67.78;100562.94;2693759;36;20022;-79
2021/08/20 10:19:30;;;;;;;1.52;0.82;;;;;;;22.73;67.87;100562.88;2660366;36;2004720;-79
2021/08/20 10:21:59;;;;;;;2.58;1.25;;;;;;;22.81;67.98;100554.34;2647370;36;20030;-79
2021/08/20 10:24:28;;;;;;;2.22;1.08;;;;;;;23.00;67.51;100559.97;2647455;36;20031;-79
2021/08/20 10:27:05;;;;;;;3.78;1.15;;;;;;;23.17;67.45;100557.84;2646997;36;20014;-79
2021/08/20 10:29:45;;;;;;;4.00;1.40;;;;;;;23.37;66.72;100562.44;2632831;36;2004884;-79
2021/08/20 10:32:15;;;;;;;5.07;1.52;;;;;;;23.43;66.70;100556.63;2634904;36;2004507;-79
2021/08/20 10:34:43;;;;;;;2.90;0.95;;;;;;;23.60;66.62;100559.78;2646377;36;20048;-79
2021/08/20 10:37:14;;;;;;;4.93;1.33;;;;;;;23.77;65.98;100536.19;2667611;36;20927;-80
2021/08/20 10:39:46;;;;;;;5.40;1.63;;;;;;;24.14;66.10;100551.84;2645235;36;20598;-79
2021/08/20 10:42:17;;;;;;;4.97;1.30;;;;;;;24.40;63.48;100557.72;2625603;36;20027;-79
2021/08/20 10:44:51;;;;;;;3.17;1.08;;;;;;;24.63;62.68;100557.63;2643361;36;20034;-79
2021/08/20 10:47:26;;;;;;;4.90;1.35;;;;;;;24.79;62.94;100550.88;2626812;36;20566;-79
2021/08/20 10:50:10;;;;;;;5.72;1.45;;;;;;;24.91;63.66;100556.16;2645466;36;20044;-79
2021/08/20 10:52:48;;;;;;;6.82;0.85;;;;;;;24.95;62.73;100539.75;2651912;36;20026;-78
2021/08/20 10:55:21;;;;;;;1.92;0.73;;;;;;;25.08;60.44;100543.06;2644023;36;20034;-79
2021/08/20 10:57:56;;;;;;;1.42;0.65;;;;;;;25.23;60.82;100543.56;2629812;36;20674;-79
2021/08/20 11:00:25;;;;;;;1.77;0.63;;;;;;;25.30;57.61;100551.91;2637757;36;20044;-79
2021/08/20 11:02:54;;;;;;;1.70;0.60;;;;;;;25.31;58.85;100537.56;2643772;36;20033;-79
2021/08/20 11:05:36;;;;;;;2.70;0.63;;;;;;;25.44;59.92;100554.22;2637485;36;20145;-79
2021/08/20 11:08:26;;;;;;;1.63;0.70;;;;;;;25.49;60.10;100551.97;2643101;36;20071;-79
2021/08/20 11:10:55;;;;;;;1.95;0.80;;;;;;;25.41;56.82;100541.13;2644687;31;20029;-79
2021/08/20 11:13:23;;;;;;;0.80;0.55;;;;;;;25.43;57.29;100530.28;2624657;36;20034;-79
2021/08/20 11:15:53;;;;;;;1.23;0.60;;;;;;;25.63;57.75;100548.09;2623608;36;20022;-80
2021/08/20 11:18:50;;;;;;;0.90;0.57;;;;;;;25.78;59.04;100541.41;2642581;36;20030;-79
2021/08/20 11:21:40;;;;;;;1.50;0.63;;;;;;;25.84;59.19;100546.22;2589033;36;2004426;-79
2021/08/20 11:24:15;;;;;;;0.73;0.60;;;;;;;25.83;56.46;100549.88;2596141;36;2006090;-79
2021/08/20 11:26:44;;;;;;;1.88;0.75;;;;;;;25.79;56.11;100542.25;2632660;36;2004622;-79
2021/08/20 11:29:15;;;;;;;4.25;0.82;;;;;;;25.71;56.60;100526.03;2659098;36;20037;-79
2021/08/20 11:31:44;;;;;;;2.45;1.10;;;;;;;25.68;55.33;100534.31;2641701;36;20038;-79
2021/08/20 11:34:11;;;;;;;1.58;0.70;;;;;;;25.55;55.59;100535.44;2735278;36;20511;-79
2021/08/20 11:36:43;;;;;;;2.08;0.70;;;;;;;25.46;56.33;100541.56;2628040;36;20026;-79
2021/08/20 11:39:14;;;;;;;3.67;1.17;;;;;;;25.40;57.36;100542.13;2628937;54;20550;-79
2021/08/20 11:41:48;;;;;;;2.42;0.88;;;;;;;25.37;57.45;100537.03;2661416;36;20626;-79
2021/08/20 11:44:16;;;;;;;3.05;1.50;;;;;;;25.28;57.48;100540.50;2655197;36;20055;-79
2021/08/20 11:46:48;;;;;;;3.90;1.50;;;;;;;25.36;58.33;100546.03;2653857;36;20007;-79
2021/08/20 11:49:28;;;;;;;10.18;2.50;;;;;;;25.36;58.61;100535.34;2702409;36;20086;-80
2021/08/20 11:52:09;;;;;;;4.63;1.70;;;;;;;25.43;58.64;100552.53;2664160;36;20043;-79
2021/08/20 11:54:39;;;;;;;8.00;2.28;;;;;;;25.38;56.84;100549.41;2653906;36;20034;-79
2021/08/20 11:57:07;;;;;;;4.38;1.70;;;;;;;25.31;57.21;100553.59;2656760;36;20037;-78
2021/08/20 11:59:35;;;;;;;6.07;1.90;;;;;;;25.23;58.68;100561.44;2629899;36;20553;-79
2021/08/20 12:02:02;;;;;;;5.82;2.08;;;;;;;25.08;58.55;100559.09;2647146;36;25819;-78
2021/08/20 12:04:43;;;;;;;6.38;2.22;;;;;;;25.02;58.89;100559.59;2665384;36;20068;-79
2021/08/20 12:07:10;;;;;;;5.30;2.00;;;;;;;24.66;58.43;100533.34;2694422;36;20010;-80
2021/08/20 12:09:41;;;;;;;7.28;2.17;;;;;;;24.58;59.66;100542.88;2629486;36;20050;-79